Time;durP1;ratioP1;P1;durP2;ratioP2;P2;SDS_P1;SDS_P2;PMS_P1;PMS_P2;Temp;Humidity;BMP_temperature;BMP_pressure;BME280_temperature;BME280_humidity;BME280_pressure;Samples;Min_cycle;Max_cycle;Signal;HPM_P1;HPM_P2
2022/09/05 00:00:25;;;;;;;;;15.00;14.00;;;;;21.92;62.94;99956.06;5024155;28;8860;-77
2022/09/05 00:03:22;;;;;;;;;18.40;16.40;;;;;21.87;62.91;99968.69;4970355;28;8843;-77
2022/09/05 00:06:10;;;;;;;;;17.80;16.40;;;;;21.69;63.38;99959.66;5020666;28;8806;-78
2022/09/05 00:09:04;;;;;;;;;14.40;13.80;;;;;21.68;63.30;99968.56;5067992;28;8964;-77
2022/09/05 00:11:58;;;;;;;;;14.60;14.60;;;;;21.70;63.52;99964.03;5068628;28;8822;-76
2022/09/05 00:15:00;;;;;;;;;20.20;17.20;;;;;21.65;63.50;99958.03;5068002;28;8814;-78
2022/09/05 00:18:27;;;;;;;;;13.00;12.00;;;;;21.49;63.90;99957.75;5075679;28;8843;-78
2022/09/05 00:21:46;;;;;;;;;16.20;12.60;;;;;21.56;63.93;99953.09;5088072;28;8843;-77
2022/09/05 00:25:04;;;;;;;;;16.80;16.40;;;;;21.54;63.92;99950.50;5088942;28;8808;-78
2022/09/05 00:28:22;;;;;;;;;15.80;15.80;;;;;21.54;63.80;99950.50;5087373;28;9565;-77
2022/09/05 00:31:28;;;;;;;;;15.60;15.00;;;;;21.55;64.03;99954.91;5088330;28;9593;-77
2022/09/05 00:34:50;;;;;;;;;16.20;14.20;;;;;21.65;63.46;99957.19;5077848;28;9002;-76
2022/09/05 00:37:41;;;;;;;;;16.60;16.00;;;;;21.65;63.73;99955.41;5067759;28;8822;-78
2022/09/05 00:40:33;;;;;;;;;18.00;15.60;;;;;21.60;63.73;99952.03;5073014;28;8872;-77
2022/09/05 00:43:24;;;;;;;;;17.80;15.80;;;;;21.62;63.72;99950.19;5101206;28;8828;-77
2022/09/05 00:46:17;;;;;;;;;14.00;13.00;;;;;21.63;64.09;99954.59;5100987;28;8816;-76
2022/09/05 00:49:17;;;;;;;;;17.60;17.00;;;;;21.69;64.06;99954.34;5071736;28;8820;-78
2022/09/05 00:52:12;;;;;;;;;15.40;15.40;;;;;21.67;63.84;99947.38;5086579;28;8828;-79
2022/09/05 00:55:13;;;;;;;;;13.60;13.60;;;;;21.72;63.56;99948.03;5084970;28;8830;-78
2022/09/05 00:58:16;;;;;;;;;16.60;16.60;;;;;21.89;63.09;99944.69;5080877;28;8834;-75
2022/09/05 01:01:19;;;;;;;;;19.40;18.40;;;;;21.84;63.55;99942.25;5066086;28;8838;-78
2022/09/05 01:04:25;;;;;;;;;14.20;14.20;;;;;21.87;63.24;99952.75;5066199;28;8818;-79
2022/09/05 01:07:28;;;;;;;;;14.60;14.60;;;;;21.84;63.42;99952.00;5066309;28;9525;-78
2022/09/05 01:10:25;;;;;;;;;14.20;13.40;;;;;21.82;63.79;99953.88;5067503;28;8814;-77
2022/09/05 01:13:22;;;;;;;;;15.00;15.00;;;;;21.76;63.56;99954.97;5085856;28;8816;-77
2022/09/05 01:16:22;;;;;;;;;13.20;13.20;;;;;21.62;64.03;99958.16;5067478;28;8795;-77
2022/09/05 01:19:22;;;;;;;;;16.20;15.60;;;;;21.52;64.46;99952.34;5068062;28;8810;-76
2022/09/05 01:22:33;;;;;;;;;15.00;13.60;;;;;21.42;64.50;99949.16;5070334;28;8874;-77
2022/09/05 01:25:30;;;;;;;;;14.40;12.60;;;;;21.31;65.15;99951.38;5074198;28;8810;-76
2022/09/05 01:28:24;;;;;;;;;15.40;14.00;;;;;21.23;65.52;99954.31;5084919;28;8814;-77
2022/09/05 01:31:42;;;;;;;;;15.20;15.00;;;;;21.26;65.57;99953.31;5100698;28;8824;-76
2022/09/05 01:34:40;;;;;;;;;15.20;13.80;;;;;20.92;66.85;99954.56;5062018;28;8807;-78
2022/09/05 01:37:36;;;;;;;;;13.60;13.20;;;;;20.87;67.06;99959.19;5091196;28;8819;-77
2022/09/05 01:40:30;;;;;;;;;13.20;12.00;;;;;21.04;66.31;99953.28;5072345;28;8858;-76
2022/09/05 01:43:26;;;;;;;;;13.80;13.00;;;;;21.10;66.08;99950.41;5070989;28;8921;-76
2022/09/05 01:46:27;;;;;;;;;15.80;14.80;;;;;21.07;66.32;99949.63;5070914;28;8928;-76
2022/09/05 01:49:23;;;;;;;;;14.20;13.60;;;;;21.18;65.98;99963.38;5070356;28;8822;-77
2022/09/05 01:52:24;;;;;;;;;15.20;15.00;;;;;21.24;65.94;99960.47;5070449;28;9540;-79
2022/09/05 01:55:30;;;;;;;;;15.60;15.40;;;;;21.29;65.55;99960.31;5069628;28;8798;-76
2022/09/05 01:58:36;;;;;;;;;12.80;10.40;;;;;21.17;65.97;99953.66;5070579;28;8838;-77
2022/09/05 02:01:31;;;;;;;;;16.40;15.60;;;;;21.21;65.75;99956.16;5080159;28;8879;-78
2022/09/05 02:04:46;;;;;;;;;15.20;13.80;;;;;21.27;65.75;99959.50;5070381;28;8834;-77
2022/09/05 02:07:48;;;;;;;;;14.00;14.00;;;;;21.21;66.06;99955.31;5071038;28;8814;-79
2022/09/05 02:11:00;;;;;;;;;17.20;15.20;;;;;21.19;65.52;99955.34;5090087;28;8966;-79
2022/09/05 02:13:57;;;;;;;;;12.80;10.80;;;;;21.06;66.11;99964.69;5090808;28;8815;-79
2022/09/05 02:16:44;;;;;;;;;15.80;15.80;;;;;21.07;65.84;99961.09;5086376;28;8834;-78
2022/09/05 02:19:31;;;;;;;;;18.60;17.40;;;;;21.12;65.65;99967.09;5069489;28;8822;-78
2022/09/05 02:22:26;;;;;;;;;15.20;14.60;;;;;21.17;65.49;99973.13;5068894;28;8873;-77
2022/09/05 02:25:18;;;;;;;;;18.00;15.80;;;;;21.15;65.25;99974.06;5070031;28;8822;-77
2022/09/05 02:28:32;;;;;;;;;14.20;12.60;;;;;21.17;65.49;99966.94;5034939;28;8829;-77
2022/09/05 02:31:28;;;;;;;;;15.80;14.20;;;;;21.24;65.07;99971.09;5054534;28;9509;-77
2022/09/05 02:34:25;;;;;;;;;12.20;11.80;;;;;21.27;64.98;99968.31;5083017;28;8844;-79
2022/09/05 02:37:18;;;;;;;;;11.40;10.60;;;;;21.22;65.02;99971.13;5090015;28;8811;-78
2022/09/05 02:40:32;;;;;;;;;9.80;9.00;;;;;21.19;64.92;99975.69;5090936;28;8942;-79
2022/09/05 02:43:45;;;;;;;;;8.80;8.80;;;;;21.20;64.88;99980.09;5093405;28;8792;-77
2022/09/05 02:47:03;;;;;;;;;8.00;8.00;;;;;21.25;64.96;99978.13;5083219;28;8961;-80
2022/09/05 02:50:06;;;;;;;;;10.60;10.60;;;;;21.27;64.59;99978.94;5070634;28;8834;-78
2022/09/05 02:53:17;;;;;;;;;9.00;8.00;;;;;21.28;64.77;99990.41;5068523;28;8830;-78
2022/09/05 02:57:00;;;;;;;;;7.00;7.00;;;;;21.37;64.43;99982.97;5069495;28;8794;-78
2022/09/05 03:00:11;;;;;;;;;8.40;7.40;;;;;21.37;64.11;99995.38;5053297;28;8819;-78
2022/09/05 03:03:28;;;;;;;;;9.60;9.60;;;;;21.26;65.12;99989.59;5069275;28;8853;-77
2022/09/05 03:06:31;;;;;;;;;9.00;8.00;;;;;21.30;64.93;99994.72;5071170;28;8863;-79
2022/09/05 03:09:32;;;;;;;;;10.20;10.20;;;;;21.38;64.60;99989.16;5089457;28;8839;-79
2022/09/05 03:13:07;;;;;;;;;13.20;12.60;;;;;21.52;64.24;99994.81;5077666;28;8830;-80
2022/09/05 03:16:29;;;;;;;;;21.80;20.80;;;;;21.58;64.13;99988.41;4989009;28;8909;-79
2022/09/05 03:20:13;;;;;;;;;26.60;25.00;;;;;21.64;63.90;99995.25;4949569;28;8830;-79
2022/09/05 03:23:47;;;;;;;;;9.00;9.00;;;;;21.42;64.55;99994.28;4935830;28;8850;-79
2022/09/05 03:27:01;;;;;;;;;9.60;9.60;;;;;21.13;65.87;99992.69;4968409;28;8835;-78
2022/09/05 03:30:07;;;;;;;;;5.40;5.00;;;;;21.23;65.49;99995.91;4967738;28;9548;-78
2022/09/05 03:33:15;;;;;;;;;10.40;10.40;;;;;21.22;65.43;99991.50;4967761;28;8815;-78
2022/09/05 03:36:44;;;;;;;;;12.60;10.40;;;;;21.35;65.19;99992.75;4967571;28;8843;-79
2022/09/05 03:39:57;;;;;;;;;10.20;9.60;;;;;21.29;65.22;100002.75;4967034;28;8874;-79
2022/09/05 03:43:42;;;;;;;;;10.80;10.20;;;;;21.08;65.82;99999.97;4948380;28;8986;-78
2022/09/05 03:47:02;;;;;;;;;9.80;9.00;;;;;20.96;66.62;100009.25;4947991;28;8939;-78
2022/09/05 03:50:10;;;;;;;;;6.80;6.80;;;;;20.90;66.99;100004.16;4951385;28;8829;-78
2022/09/05 03:53:53;;;;;;;;;12.80;12.00;;;;;21.06;66.32;100011.53;5041454;28;8821;-80
2022/09/05 03:57:27;;;;;;;;;8.40;8.40;;;;;20.95;66.85;100011.94;5045640;28;9993;-79
2022/09/05 04:00:32;;;;;;;;;12.00;12.00;;;;;20.98;66.39;100014.47;5089985;28;8825;-79
2022/09/05 04:03:26;;;;;;;;;7.60;6.40;;;;;20.92;67.12;100018.22;5107523;28;8845;-78
2022/09/05 04:06:36;;;;;;;;;9.40;9.40;;;;;20.84;66.85;100022.94;5084229;28;8834;-78
2022/09/05 04:09:52;;;;;;;;;9.60;7.80;;;;;20.96;66.96;100033.13;5066736;28;8822;-79
2022/09/05 04:12:50;;;;;;;;;10.60;10.60;;;;;21.26;65.94;100032.03;5067997;28;8818;-81
2022/09/05 04:15:41;;;;;;;;;11.80;11.00;;;;;21.35;65.15;100034.34;5100222;28;8816;-79
2022/09/05 04:18:36;;;;;;;;;12.20;11.80;;;;;21.51;64.69;100037.31;5072570;28;8819;-79
2022/09/05 04:21:27;;;;;;;;;10.20;10.20;;;;;21.50;64.93;100035.59;5080215;28;8819;-78
2022/09/05 04:24:27;;;;;;;;;12.40;11.60;;;;;21.62;64.52;100040.44;5068474;28;8831;-80
2022/09/05 04:27:29;;;;;;;;;10.80;10.80;;;;;21.73;64.07;100042.69;5073229;28;8965;-77
2022/09/05 04:30:37;;;;;;;;;11.20;11.20;;;;;21.84;63.93;100045.78;5053150;28;8818;-79
2022/09/05 04:33:32;;;;;;;;;18.60;18.20;;;;;21.85;63.89;100050.16;5044724;28;8845;-79
2022/09/05 04:36:28;;;;;;;;;13.00;13.00;;;;;21.92;63.44;100059.63;5017585;28;8802;-79
2022/09/05 04:39:26;;;;;;;;;14.80;13.00;;;;;22.04;63.11;100063.63;5052307;28;8856;-81
2022/09/05 04:42:21;;;;;;;;;53.50;44.75;;;;;22.03;63.10;100072.50;5050918;28;8844;-77
2022/09/05 04:45:13;;;;;;;;;24.20;23.40;;;;;22.07;63.23;100070.59;5065135;28;8836;-79
2022/09/05 04:48:14;;;;;;;;;18.60;16.60;;;;;22.09;62.87;100071.38;5050645;28;9583;-81
2022/09/05 04:51:10;;;;;;;;;15.00;12.20;;;;;22.03;63.05;100076.94;5045231;28;8830;-78
2022/09/05 04:54:23;;;;;;;;;15.60;15.40;;;;;22.18;62.79;100074.53;5016834;28;8830;-79
2022/09/05 04:57:24;;;;;;;;;14.20;14.00;;;;;22.18;62.53;100079.00;5031010;28;8829;-78
2022/09/05 05:00:15;;;;;;;;;14.00;12.40;;;;;22.05;62.58;100083.91;5031613;28;8818;-81
2022/09/05 05:03:26;;;;;;;;;13.40;11.40;;;;;22.17;62.56;100085.22;5050133;28;8842;-81
2022/09/05 05:06:39;;;;;;;;;11.20;11.20;;;;;22.17;62.24;100091.41;5050552;28;9470;-77
2022/09/05 05:09:41;;;;;;;;;12.40;12.20;;;;;22.29;62.19;100090.09;5040079;28;8818;-81
2022/09/05 05:12:47;;;;;;;;;17.60;13.40;;;;;22.42;61.96;100095.78;5073398;28;8993;-79
2022/09/05 05:15:57;;;;;;;;;15.20;15.00;;;;;22.41;61.80;100096.69;5073274;28;8937;-79
2022/09/05 05:19:13;;;;;;;;;12.00;12.00;;;;;22.51;61.64;100099.84;5072253;28;8965;-80
2022/09/05 05:22:05;;;;;;;;;13.00;13.00;;;;;22.45;61.60;100098.28;5067079;28;8835;-78
2022/09/05 05:24:57;;;;;;;;;13.40;13.40;;;;;22.46;61.66;100100.03;5060878;28;9589;-79
2022/09/05 05:27:58;;;;;;;;;16.00;15.60;;;;;22.54;61.67;100113.88;5094383;28;9669;-80
2022/09/05 05:30:45;;;;;;;;;19.00;19.00;;;;;22.50;61.68;100109.59;5105851;28;8832;-79
2022/09/05 05:33:40;;;;;;;;;23.80;23.80;;;;;22.55;62.03;100115.63;5092605;28;8812;-78
2022/09/05 05:36:30;;;;;;;;;20.00;18.60;;;;;22.54;61.97;100113.00;5084377;28;8844;-78
2022/09/05 05:39:24;;;;;;;;;16.80;16.40;;;;;22.62;62.03;100112.69;5091154;28;8848;-79
2022/09/05 05:42:17;;;;;;;;;23.20;20.20;;;;;22.50;61.88;100114.94;5091518;28;9608;-80
2022/09/05 05:45:17;;;;;;;;;17.20;16.40;;;;;22.58;61.18;100122.59;5078469;28;8846;-80
2022/09/05 05:48:07;;;;;;;;;17.20;15.60;;;;;22.50;61.13;100125.56;5070706;28;8822;-80
2022/09/05 05:51:05;;;;;;;;;16.00;16.00;;;;;22.65;60.67;100125.88;5069924;28;8822;-80
2022/09/05 05:53:58;;;;;;;;;17.60;17.60;;;;;22.75;61.04;100125.41;5071162;28;8952;-81
2022/09/05 05:57:35;;;;;;;;;20.00;18.60;;;;;23.03;60.69;100136.69;5069719;28;8838;-79
2022/09/05 06:00:38;;;;;;;;;19.60;18.60;;;;;23.09;60.17;100131.13;5084799;28;8830;-80
2022/09/05 06:04:05;;;;;;;;;18.40;17.00;;;;;22.95;60.26;100140.53;5071623;28;8881;-79
2022/09/05 06:07:02;;;;;;;;;14.60;14.60;;;;;22.91;60.52;100144.25;5071901;28;8818;-78
2022/09/05 06:10:21;;;;;;;;;20.40;17.60;;;;;23.24;59.79;100140.25;5106564;27;8826;-78
2022/09/05 06:13:57;;;;;;;;;16.80;16.80;;;;;23.40;58.81;100143.09;5097046;28;8835;-80
2022/09/05 06:17:59;;;;;;;;;19.80;18.20;;;;;23.68;58.93;100151.59;5014289;28;8839;-79
2022/09/05 06:21:13;;;;;;;;;17.60;16.20;;;;;23.59;58.46;100143.16;4988801;28;8850;-78
2022/09/05 06:24:56;;;;;;;;;16.80;16.80;;;;;23.77;58.50;100158.31;4930040;29;8864;-78
2022/09/05 06:28:11;;;;;;;;;19.40;17.60;;;;;23.89;58.37;100148.91;4892682;29;8833;-79
2022/09/05 06:31:33;;;;;;;;;16.20;16.00;;;;;24.17;58.17;100148.50;4873941;29;9634;-79
2022/09/05 06:34:55;;;;;;;;;17.00;16.00;;;;;24.23;58.37;100150.84;4873418;29;8983;-72
2022/09/05 06:37:56;;;;;;;;;16.00;14.40;;;;;24.22;58.19;100143.81;4860640;29;8852;-73
2022/09/05 06:40:54;;;;;;;;;15.00;15.00;;;;;24.46;57.96;100148.91;4873240;29;8856;-73
2022/09/05 06:44:03;;;;;;;;;16.60;15.40;;;;;24.45;57.52;100153.38;4874502;29;8896;-82
2022/09/05 06:46:55;;;;;;;;;15.40;15.40;;;;;24.63;57.63;100148.09;4879149;29;8863;-85
2022/09/05 06:50:22;;;;;;;;;19.80;18.40;;;;;24.78;56.92;100151.81;4872310;29;9003;-83
2022/09/05 06:53:53;;;;;;;;;16.40;16.20;;;;;24.90;57.03;100151.22;4923320;28;8860;-82
2022/09/05 06:56:55;;;;;;;;;13.60;11.60;;;;;24.84;57.35;100149.72;5000730;28;8832;-81
2022/09/05 07:00:17;;;;;;;;;55.00;45.50;;;;;25.20;56.64;100142.56;4985881;28;8842;-83
2022/09/05 07:03:29;;;;;;;;;12.20;11.80;;;;;25.44;56.01;100143.13;4955771;28;8896;-84
2022/09/05 07:06:31;;;;;;;;;12.40;11.60;;;;;25.40;54.89;100146.91;5002346;28;8820;-83
2022/09/05 07:09:54;;;;;;;;;12.80;12.80;;;;;25.41;54.88;100149.53;5029580;28;8812;-84
2022/09/05 07:12:47;;;;;;;;;15.60;15.40;;;;;25.57;55.05;100154.91;5015350;28;9642;-83
2022/09/05 07:15:44;;;;;;;;;14.40;14.00;;;;;25.53;55.67;100157.81;5003726;28;8878;-81
2022/09/05 07:18:42;;;;;;;;;13.40;13.20;;;;;25.46;54.76;100152.81;5022842;28;8864;-81
2022/09/05 07:21:41;;;;;;;;;18.20;17.80;;;;;25.67;55.51;100156.16;4981699;28;9690;-84
2022/09/05 07:24:35;;;;;;;;;13.40;13.00;;;;;25.93;54.22;100151.22;4994799;28;8822;-82
2022/09/05 07:27:51;;;;;;;;;21.00;20.20;;;;;26.08;54.10;100154.88;5000702;28;8820;-82
2022/09/05 07:31:03;;;;;;;;;15.00;14.40;;;;;26.14;53.70;100151.00;5014748;28;8808;-81
2022/09/05 07:34:04;;;;;;;;;16.20;13.40;;;;;26.20;53.14;100159.56;5028053;28;9609;-82
2022/09/05 07:37:13;;;;;;;;;11.80;11.80;;;;;26.28;53.24;100161.78;5021210;28;8871;-83
2022/09/05 07:40:08;;;;;;;;;12.80;12.80;;;;;26.51;53.18;100159.63;5098992;28;9694;-80
2022/09/05 07:43:16;;;;;;;;;15.00;13.20;;;;;26.75;52.33;100165.41;5083544;28;8968;-79
2022/09/05 07:46:11;;;;;;;;;12.40;12.40;;;;;27.02;51.60;100165.63;5062393;28;8829;-80
2022/09/05 07:49:03;;;;;;;;;15.80;14.20;;;;;27.15;51.26;100155.03;5074291;28;8830;-81
2022/09/05 07:51:54;;;;;;;;;13.20;12.80;;;;;27.39;51.05;100160.75;5087893;28;10063;-81
2022/09/05 07:55:14;;;;;;;;;12.40;11.80;;;;;27.56;49.94;100160.59;5078154;28;8862;-80
2022/09/05 07:58:23;;;;;;;;;14.80;13.00;;;;;27.15;51.03;100158.56;5087811;28;8932;-80
2022/09/05 08:01:13;;;;;;;;;12.80;11.60;;;;;27.42;50.61;100157.91;5071605;28;8842;-81
2022/09/05 08:04:00;;;;;;;;;14.80;14.00;;;;;27.69;49.92;100152.66;5074115;28;8843;-81
2022/09/05 08:06:53;;;;;;;;;15.60;14.80;;;;;27.83;48.97;100149.13;5056674;28;8818;-80
2022/09/05 08:10:08;;;;;;;;;21.60;20.40;;;;;27.97;47.78;100153.63;5072340;28;8814;-83
2022/09/05 08:13:01;;;;;;;;;18.00;16.80;;;;;28.05;47.90;100154.00;5069386;28;8951;-80
2022/09/05 08:16:12;;;;;;;;;17.40;17.40;;;;;27.91;47.69;100156.72;5067139;28;8847;-79
2022/09/05 08:19:12;;;;;;;;;16.60;16.40;;;;;27.86;46.68;100161.47;5059062;28;8836;-79
2022/09/05 08:22:02;;;;;;;;;21.40;17.40;;;;;28.04;46.36;100156.81;5096905;28;8843;-78
2022/09/05 08:24:59;;;;;;;;;17.40;16.80;;;;;28.22;45.00;100155.59;5067101;28;9029;-79
2022/09/05 08:28:02;;;;;;;;;18.60;17.60;;;;;28.42;45.23;100165.06;5080821;28;8828;-78
2022/09/05 08:30:56;;;;;;;;;16.40;15.80;;;;;28.54;44.48;100160.75;5085717;28;8836;-82
2022/09/05 08:33:45;;;;;;;;;15.40;15.40;;;;;28.39;44.82;100159.88;5066986;28;8827;-78
2022/09/05 08:36:37;;;;;;;;;20.00;20.00;;;;;27.50;47.02;100160.97;5051897;28;8864;-80
2022/09/05 08:39:28;;;;;;;;;17.60;16.80;;;;;27.56;47.13;100157.94;5082764;28;8836;-80
2022/09/05 08:42:27;;;;;;;;;19.80;18.00;;;;;27.42;48.35;100163.25;5092344;28;8812;-79
2022/09/05 08:45:21;;;;;;;;;16.60;16.00;;;;;27.64;47.28;100161.94;5095313;28;8834;-82
2022/09/05 08:48:45;;;;;;;;;16.20;15.60;;;;;27.72;48.03;100160.50;5068561;28;8842;-80
2022/09/05 08:51:41;;;;;;;;;14.60;14.40;;;;;27.56;48.22;100154.38;5094617;28;8839;-81
2022/09/05 08:54:56;;;;;;;;;14.00;11.00;;;;;27.76;48.00;100145.94;5091377;28;8859;-81
2022/09/05 08:58:13;;;;;;;;;18.80;16.80;;;;;28.03;47.38;100150.56;5060175;28;9561;-79
2022/09/05 09:01:13;;;;;;;;;14.40;14.40;;;;;28.05;47.06;100147.78;5086531;28;8832;-79
2022/09/05 09:04:19;;;;;;;;;15.60;14.80;;;;;28.43;47.13;100141.75;5089169;28;8951;-79
2022/09/05 09:07:35;;;;;;;;;16.00;15.40;;;;;28.10;46.44;100138.50;5081210;28;8854;-80
2022/09/05 09:10:53;;;;;;;;;18.60;14.80;;;;;28.05;47.39;100145.97;5085678;28;8819;-82
2022/09/05 09:13:52;;;;;;;;;19.00;17.80;;;;;28.03;46.44;100131.78;5076690;28;8838;-80
2022/09/05 09:16:57;;;;;;;;;13.80;13.80;;;;;28.34;45.58;100130.69;5035767;28;8849;-82
2022/09/05 09:19:50;;;;;;;;;16.20;16.20;;;;;28.55;43.83;100138.31;5078607;28;8849;-82
2022/09/05 09:22:42;;;;;;;;;17.20;16.60;;;;;28.78;43.53;100126.03;5068608;28;8838;-81
2022/09/05 09:25:36;;;;;;;;;15.00;13.80;;;;;29.04;42.73;100129.66;5097050;28;8842;-81
2022/09/05 09:28:44;;;;;;;;;20.00;15.80;;;;;29.36;42.10;100129.28;5081616;28;8826;-80
2022/09/05 09:31:51;;;;;;;;;15.80;15.20;;;;;29.37;39.84;100120.25;5079486;28;8848;-80
2022/09/05 09:34:51;;;;;;;;;16.40;16.00;;;;;29.54;40.46;100129.81;5046246;28;8833;-80
2022/09/05 09:38:19;;;;;;;;;11.60;11.20;;;;;29.86;39.07;100121.31;5082388;28;8842;-82
2022/09/05 09:41:33;;;;;;;;;12.60;12.40;;;;;29.96;38.53;100119.69;5043547;28;9600;-83
2022/09/05 09:44:54;;;;;;;;;12.40;12.40;;;;;30.03;35.90;100126.34;5065887;28;8841;-83
2022/09/05 09:48:04;;;;;;;;;11.60;11.00;;;;;30.17;35.14;100128.03;5091069;28;8848;-80
2022/09/05 09:51:16;;;;;;;;;14.20;14.20;;;;;30.26;35.79;100127.34;5078450;28;8844;-84
2022/09/05 09:54:32;;;;;;;;;12.00;12.00;;;;;30.12;34.14;100120.28;5058271;28;8832;-82
2022/09/05 09:57:52;;;;;;;;;11.20;10.20;;;;;28.80;35.34;100121.44;5057065;28;8844;-82
2022/09/05 10:00:50;;;;;;;;;13.00;11.80;;;;;28.67;37.86;100118.69;5068228;28;8836;-71
2022/09/05 10:03:57;;;;;;;;;37.00;33.60;;;;;29.05;38.22;100111.72;5057292;28;8823;-71
2022/09/05 10:07:34;;;;;;;;;16.80;16.80;;;;;29.37;37.93;100122.94;5067671;28;8817;-78
2022/09/05 10:11:23;;;;;;;;;16.80;16.20;;;;;29.85;37.20;100120.47;5062033;28;8832;-78
2022/09/05 10:15:14;;;;;;;;;13.60;13.60;;;;;30.02;36.28;100121.06;5027442;28;9640;-77
2022/09/05 10:18:36;;;;;;;;;13.60;13.00;;;;;30.24;36.84;100118.53;4989222;28;8837;-78
2022/09/05 10:21:50;;;;;;;;;15.60;15.20;;;;;30.33;36.62;100108.09;4988893;28;8870;-77
2022/09/05 10:25:23;;;;;;;;;17.00;15.60;;;;;30.37;35.87;100105.06;4972202;28;8850;-78
2022/09/05 10:28:26;;;;;;;;;17.60;16.60;;;;;30.27;34.95;100102.16;4917389;29;8979;-78
2022/09/05 10:31:17;;;;;;;;;16.80;15.80;;;;;30.45;35.42;100104.50;4904264;29;8845;-78
2022/09/05 10:34:28;;;;;;;;;16.40;16.40;;;;;30.57;35.79;100095.50;4932149;29;8848;-77
2022/09/05 10:37:42;;;;;;;;;26.40;25.80;;;;;29.64;37.32;100105.84;4917748;29;9965;-79
2022/09/05 10:40:33;;;;;;;;;16.20;16.20;;;;;29.71;37.84;100099.06;4915645;29;9615;-75
2022/09/05 10:43:49;;;;;;;;;15.80;15.80;;;;;29.69;38.14;100093.78;4911320;29;8857;-75
2022/09/05 10:46:47;;;;;;;;;19.00;18.60;;;;;29.95;37.54;100103.69;4930770;29;8856;-77
2022/09/05 10:49:43;;;;;;;;;15.60;15.40;;;;;30.18;37.14;100094.78;4990080;28;8862;-77
2022/09/05 10:52:36;;;;;;;;;16.00;13.80;;;;;30.02;36.78;100100.44;4988118;28;8838;-77
2022/09/05 10:55:30;;;;;;;;;17.60;16.40;;;;;29.94;36.94;100094.72;5007420;28;8855;-77
2022/09/05 10:58:32;;;;;;;;;21.60;21.00;;;;;30.17;37.29;100094.88;4998904;28;8950;-76
2022/09/05 11:01:45;;;;;;;;;16.20;16.20;;;;;30.26;36.61;100086.97;4987991;28;9576;-77
2022/09/05 11:05:03;;;;;;;;;18.20;17.00;;;;;30.34;36.56;100088.28;5021814;28;8931;-77
2022/09/05 11:08:04;;;;;;;;;14.00;13.80;;;;;29.82;37.29;100080.34;5088859;28;8827;-79
2022/09/05 11:11:02;;;;;;;;;15.80;15.80;;;;;30.05;37.14;100075.13;5065396;28;8850;-78
2022/09/05 11:13:51;;;;;;;;;20.00;19.40;;;;;30.25;37.41;100070.97;5054106;28;8837;-77
2022/09/05 11:16:49;;;;;;;;;18.40;18.00;;;;;30.51;36.35;100069.03;5069217;28;8866;-78
2022/09/05 11:19:41;;;;;;;;;23.60;23.00;;;;;30.09;37.19;100071.22;5083200;28;8844;-78
2022/09/05 11:22:37;;;;;;;;;24.20;21.20;;;;;30.29;37.90;100067.06;5079748;28;8834;-76
2022/09/05 11:25:27;;;;;;;;;20.40;18.20;;;;;30.52;36.54;100065.38;5083310;28;8859;-81
2022/09/05 11:28:37;;;;;;;;;19.20;18.80;;;;;30.71;36.11;100062.13;5077233;28;8869;-73
2022/09/05 11:31:56;;;;;;;;;21.00;21.00;;;;;29.82;38.84;100058.84;5078470;28;8828;-77
2022/09/05 11:35:20;;;;;;;;;19.60;19.60;;;;;29.09;40.94;100059.50;5089216;28;8824;-72
2022/09/05 11:38:54;;;;;;;;;21.00;21.00;;;;;28.09;44.05;100068.84;5046036;28;8965;-73
2022/09/05 11:42:25;;;;;;;;;24.00;20.60;;;;;28.09;43.68;100063.50;5086703;28;8834;-72
2022/09/05 11:45:36;;;;;;;;;24.60;23.00;;;;;28.32;44.02;100062.00;5085687;28;8830;-74
2022/09/05 11:48:51;;;;;;;;;24.80;23.80;;;;;28.96;43.34;100051.41;5025718;28;8991;-69
2022/09/05 11:52:08;;;;;;;;;19.60;19.60;;;;;29.10;42.54;100050.50;4992700;28;8842;-74
2022/09/05 11:55:33;;;;;;;;;20.60;20.60;;;;;29.60;41.01;100037.13;5002671;28;8834;-72
2022/09/05 11:59:00;;;;;;;;;19.00;17.40;;;;;29.97;40.74;100037.19;4988467;28;8836;-76
2022/09/05 12:02:14;;;;;;;;;16.00;16.00;;;;;30.18;39.72;100030.19;4928263;29;8863;-76
2022/09/05 12:05:37;;;;;;;;;19.40;18.00;;;;;28.36;43.42;100044.75;4892717;29;8837;-74
2022/09/05 12:08:39;;;;;;;;;19.80;19.20;;;;;28.18;43.70;100030.72;4928663;29;8860;-72
2022/09/05 12:11:45;;;;;;;;;11.80;11.20;;;;;28.40;43.20;100032.84;4915483;29;8833;-70
2022/09/05 12:14:40;;;;;;;;;26.80;24.80;;;;;27.56;44.83;100039.16;4928891;29;8851;-79
2022/09/05 12:17:52;;;;;;;;;21.60;20.20;;;;;27.71;45.22;100043.56;4896175;29;8995;-69
2022/09/05 12:20:51;;;;;;;;;23.60;20.80;;;;;27.71;44.49;100035.53;4946826;28;8853;-79
2022/09/05 12:23:50;;;;;;;;;26.00;24.40;;;;;28.16;44.01;100027.28;4930541;28;8841;-71
2022/09/05 12:27:03;;;;;;;;;21.60;20.60;;;;;28.50;42.04;100030.38;4952430;28;8830;-71
2022/09/05 12:30:14;;;;;;;;;21.60;21.00;;;;;28.50;42.36;100030.38;5026259;28;8824;-71
2022/09/05 12:33:18;;;;;;;;;19.20;18.40;;;;;28.84;41.33;100018.22;4984595;28;8804;-69
2022/09/05 12:36:35;;;;;;;;;21.40;20.20;;;;;28.81;41.96;100025.63;5006578;28;8846;-70
2022/09/05 12:39:45;;;;;;;;;28.00;24.80;;;;;28.92;42.14;100020.38;5057715;28;8976;-71
2022/09/05 12:42:54;;;;;;;;;22.20;22.20;;;;;28.87;40.53;100019.88;5068859;28;8834;-71
2022/09/05 12:46:08;;;;;;;;;18.60;18.20;;;;;29.47;40.78;100019.22;5067588;28;8825;-73
2022/09/05 12:49:17;;;;;;;;;28.00;27.20;;;;;29.94;38.85;100011.34;5067953;28;8806;-72
2022/09/05 12:52:08;;;;;;;;;20.00;19.40;;;;;29.64;37.94;100012.63;5068010;28;8798;-72
2022/09/05 12:54:58;;;;;;;;;20.60;20.60;;;;;29.75;37.83;100011.84;5095467;28;8826;-71
2022/09/05 12:57:47;;;;;;;;;21.00;20.80;;;;;30.39;37.30;100008.91;5067816;28;8842;-70
2022/09/05 13:01:18;;;;;;;;;21.00;21.00;;;;;30.91;37.07;100014.88;5054946;28;8790;-71
2022/09/05 13:04:29;;;;;;;;;24.25;24.00;;;;;31.18;35.77;100017.22;5067642;28;8814;-71
2022/09/05 13:07:23;;;;;;;;;48.50;39.00;;;;;31.42;35.13;100013.56;5067586;28;8798;-72
2022/09/05 13:10:16;;;;;;;;;23.40;22.80;;;;;31.41;35.04;100015.38;5067567;28;8968;-71
2022/09/05 13:13:27;;;;;;;;;21.80;21.80;;;;;31.63;34.50;100011.84;5067472;28;8806;-70
2022/09/05 13:16:38;;;;;;;;;20.20;18.40;;;;;31.52;34.71;100014.53;5067499;28;8866;-72
2022/09/05 13:19:36;;;;;;;;;23.40;20.60;;;;;31.74;34.71;100007.38;5067375;28;8810;-70
2022/09/05 13:22:25;;;;;;;;;20.80;19.80;;;;;31.75;34.01;100018.06;5069916;28;9564;-71
2022/09/05 13:25:21;;;;;;;;;18.60;18.60;;;;;31.72;33.21;100015.63;5071600;28;8798;-69
2022/09/05 13:28:12;;;;;;;;;44.50;37.75;;;;;31.76;33.35;100010.81;5071690;28;8815;-69
2022/09/05 13:31:06;;;;;;;;;28.75;27.00;;;;;31.76;32.74;100013.50;5071585;28;8802;-70
2022/09/05 13:34:19;;;;;;;;;56.00;46.00;;;;;31.81;32.82;100006.75;5071302;28;8818;-69
2022/09/05 13:37:30;;;;;;;;;26.00;26.00;;;;;31.90;32.55;100005.16;5071211;28;8862;-71
2022/09/05 13:40:43;;;;;;;;;21.40;21.20;;;;;31.93;32.93;100006.72;5084431;28;8814;-70
2022/09/05 13:43:34;;;;;;;;;20.80;19.60;;;;;31.91;32.97;100006.88;5070016;28;8810;-70
2022/09/05 13:46:29;;;;;;;;;22.60;22.00;;;;;31.76;32.85;100006.31;5071028;28;8795;-69
2022/09/05 13:49:22;;;;;;;;;23.75;22.50;;;;;31.61;32.83;100007.56;5071151;28;8829;-70
2022/09/05 13:52:36;;;;;;;;;20.20;19.80;;;;;31.58;33.11;100002.41;5070869;28;8826;-72
2022/09/05 13:55:36;;;;;;;;;20.00;18.40;;;;;31.65;32.13;100003.63;5070813;28;8802;-70
2022/09/05 13:58:38;;;;;;;;;16.60;16.40;;;;;31.58;32.73;100005.09;5070625;28;9916;-71
2022/09/05 14:01:50;;;;;;;;;58.00;46.75;;;;;31.65;32.92;100006.31;5083711;28;8850;-69
2022/09/05 14:05:19;;;;;;;;;21.20;21.20;;;;;31.76;33.04;100000.91;5033947;28;9842;-71
2022/09/05 14:08:34;;;;;;;;;35.00;32.00;;;;;31.50;33.38;100005.72;5048084;28;8830;-70
2022/09/05 14:11:47;;;;;;;;;22.60;20.80;;;;;31.45;33.33;99997.97;5033609;28;8810;-71
2022/09/05 14:14:41;;;;;;;;;17.20;16.60;;;;;31.42;33.22;99995.53;5056957;28;8825;-80
2022/09/05 14:18:02;;;;;;;;;18.80;18.40;;;;;31.43;33.21;99994.53;5056206;28;8837;-77